x

Central Gulf Of Alaska - 265nm West Of Cape Ommaney, Akk (46085) Wave Buoy

4:50am - Thu 31st Jul 2014 All times are UTC.

  • Sig Wave height 5.2ft
  • Peak Period 7s
  • Wind
    18mph, 22mph gusts
  • Sea Temp 57°f
  • Air Temp 58°f
  • Sea Pressure 1021.3mb

More Historic Weather Station data

Upgrade to MSW Pro to gain access to the past 30 days of data for over 8000 Wavebouys and Weather Stations around the globe.

Join Pro

Comparision Forecast

View Surf forecast
   
Thu 07/31 4:50am 5ft 7s 18 22 mph 1021.3mb 57f 58f
3:50am 5.5ft 5s 18 22 mph 1021mb 58f 58f
2:50am 5ft 5s 16 20 mph 1020.6mb 58f 57f
1:50am 5ft 7s 20 22 mph 1020.4mb 58f 57f
12:50am 4.5ft 4s 22 27 mph 1020.1mb 58f 57f
Wed 07/30 11:50pm 4.5ft 6s 18 22 mph 1019.9mb 58f 57f
10:50pm 5ft 7s 18 22 mph 1019.6mb 58f 56f
9:50pm 4.5ft 7s 18 20 mph 1019.3mb 58f 56f
8:50pm 4.5ft 6s 16 18 mph 1019.1mb 58f 55f
7:50pm 4.5ft 7s 16 18 mph 1019mb 58f 54f
6:50pm 4.5ft 7s 13 16 mph 1018.5mb 57f 55f
5:50pm 3.5ft 5s 16 20 mph 1018mb 57f 55f
4:50pm 4ft 5s 13 16 mph 1017.5mb 57f 55f
3:50pm 4ft 5s 13 18 mph 1017.2mb 57f 55f
2:50pm 4.5ft 6s 18 22 mph 1016.6mb 57f 57f
1:50pm 3.5ft 5s 18 20 mph 1016.2mb 57f 57f
12:50pm 3.5ft 5s 11 13 mph 1016.1mb 57f 56f
11:50am 3.5ft 6s 11
mph
1016mb 57f 55f
10:50am 4ft 6s 16 20 mph 1015.8mb 57f 55f
9:50am 3.5ft 6s 16 20 mph 1015.5mb 57f 57f
8:50am 4ft 5s 16 18 mph 1015.4mb 58f 57f
7:50am 4.5ft 5s 16 18 mph 1015.1mb 58f 57f
6:50am 4ft 5s 16 20 mph 1014.8mb 58f 56f
5:50am 4ft 5s 22 25 mph 1014.1mb 58f 56f
4:50am 4ft 5s 20 22 mph 1013.7mb 58f 56f
3:50am 4ft 5s 18 22 mph 1013.6mb 58f 56f
2:50am 4.5ft 6s 20 22 mph 1013.3mb 58f 57f
1:50am 4.5ft 6s 20 25 mph 1012.8mb 58f 57f
12:50am 4.5ft 4s 20 25 mph 1012.2mb 58f 56f
Tue 07/29 11:50pm 2.5ft 3s 20 25 mph 1011.8mb 58f 56f
10:50pm 2ft 5s 16 18 mph 1011.6mb 58f 57f
9:50pm 2ft 5s 9 11 mph 1011.5mb 58f 58f
8:50pm 2ft 5s 9 11 mph 1011.3mb 58f 58f
7:50pm 2ft 5s 7
mph
1011.3mb 58f 57f
6:50pm 2ft 5s 9 11 mph 1011.5mb 58f 58f
5:50pm 2.5ft 16s 11
mph
1011.5mb 58f 57f
4:50pm 2.5ft 6s 9
mph
1011.5mb 58f 57f
3:50pm 2.5ft 6s 7 9 mph 1011.6mb 58f 57f
2:50pm 2.5ft 5s 9
mph
1011.7mb 58f 57f
1:50pm 2.5ft 6s 11 13 mph 1011.7mb 58f 57f
12:50pm 2.5ft 5s 11 13 mph 1011.8mb 58f 57f
11:50am 2.5ft 5s 11 13 mph 1011.9mb 58f 56f
10:50am 3.5ft 4s 13
mph
1012mb 58f 56f
9:50am 3.5ft 4s 18 20 mph 1012.1mb 58f 56f
8:50am 3.5ft 4s 18 20 mph 1012.3mb 58f 57f
7:50am 3.5ft 5s 16 20 mph 1012.5mb 58f 58f
6:50am 3.5ft 5s 13 18 mph 1012.8mb 58f 57f
5:50am 3.5ft 5s 13 16 mph 1012.9mb 58f 57f
4:50am 3.5ft 5s 16 18 mph 1012.9mb 58f 57f
3:50am 3.5ft 5s 18 20 mph 1012.9mb 58f 57f
2:50am 3.5ft 5s 18 22 mph 1013mb 58f 58f
1:50am 3.5ft 5s 18 20 mph 1013.3mb 58f 58f
12:50am 3.5ft 4s 16 20 mph 1013.5mb 58f 58f
Mon 07/28 11:50pm 2.5ft 4s 16 18 mph 1013.8mb 58f 58f
10:50pm 3ft 4s 16 18 mph 1013.9mb 58f 58f
9:50pm 2.5ft 7s 13 16 mph 1014.1mb 58f 58f
8:50pm 2.5ft 6s 13 16 mph 1014.3mb 58f 58f
7:50pm 2.5ft 6s 13 16 mph 1014.5mb 58f 58f
6:50pm 2.5ft 5s 13
mph
1014.8mb 58f 58f
5:50pm 2.5ft 7s 11 13 mph 1015.1mb 58f 58f
4:50pm 2.5ft 6s 11 13 mph 1015mb 57f 58f
3:50pm 2.5ft 7s 11
mph
1015mb 57f 58f
2:50pm 2.5ft 6s 11
mph
1014.9mb 57f 58f
1:50pm 2.5ft 6s 11 13 mph 1015mb 57f 57f
12:50pm 2.5ft 7s 11 13 mph 1014.9mb 58f 58f
11:50am 2.5ft 7s 11 13 mph 1015mb 58f 57f
10:50am 2.5ft 6s 9 11 mph 1015.1mb 58f 58f
9:50am 2.5ft 7s 7
mph
1015.3mb 58f 58f
8:50am 2.5ft 7s 7 9 mph 1015.4mb 58f 58f
7:50am 2.5ft 7s 7
mph
1015.5mb 58f 58f
6:50am 2.5ft 7s 7
mph
1015.8mb 58f 58f
5:50am 3ft 6s 4 7 mph 1015.7mb 58f 58f
4:50am 3ft 6s 4 7 mph 1015.6mb 58f 58f
3:50am 3ft 5s 4
mph
1015.5mb 58f 58f
2:50am 3ft 8s 4
mph
1015.6mb 58f 58f
1:50am 2.5ft 7s 4 7 mph 1015.5mb 59f 58f
12:50am 3ft 7s 7
mph
1015.6mb 58f 58f
Sun 07/27 11:50pm 3ft 6s 4 7 mph 1015.6mb 58f 58f
10:50pm 3.5ft 7s 7
mph
1015.3mb 58f 58f
9:50pm 3ft 7s 7
mph
1014.9mb 58f 58f
8:50pm 3ft 7s 7
mph
1014.8mb 58f 58f
7:50pm 3ft 7s 4 7 mph 1014.7mb 58f 58f
6:50pm 3ft 8s 7
mph
1014.4mb 57f 57f
5:50pm 3.5ft 7s 7 9 mph 1014.1mb 57f 57f
4:50pm 3.5ft 7s 7 9 mph 1013.9mb 57f 57f
3:50pm 3.5ft 7s 7
mph
1013.4mb 57f 57f
2:50pm 3.5ft 8s 9
mph
1013.1mb 57f 56f
1:50pm 4ft 7s 9 11 mph 1012.8mb 57f 56f
12:50pm 3.5ft 8s 7 9 mph 1012.5mb 57f 56f
11:50am 3.5ft 8s 9 11 mph 1012.1mb 57f 56f
10:50am 3.5ft 8s 11
mph
1011.8mb 57f 56f
9:50am 3.5ft 8s 11 13 mph 1011.6mb 57f 56f
8:50am 3.5ft 8s 11 13 mph 1011.5mb 57f 56f
7:50am 3.5ft 8s 11 13 mph 1011.4mb 57f 56f
6:50am 3.5ft 7s 13 16 mph 1011.1mb 57f 56f